Hauptseite
METAR-TAF:

METAR-TAF

Flughäfen :

Flughafen Lorient Bretagne Sud

Lorient, Frankreich

Breite: 47-46N, Länge: 003-27W, Höhe: 52 m

Beobachtung

Neuester Wetterbericht von vor 25 Minuten, um 10:00 UTC
Wind 10 kt aus Nordost
Temperatur 9°C
Luftfeuchtigkeit 76%
Luftdruck 1037 hPa
Sichtweite 10 km oder mehr
keine Wolken unter 1500 m und keine Kumulonimbus oder Gewitterwolken

METAR: LFRH 261000Z AUTO 04010KT CAVOK 09/05 Q1037 NOSIG

Zeit: 11:25 (10:25 UTC)

Prognose

Neuester Wetterbericht von vor 5 Stunden und 25 Minuten, um 05:00 UTC
Gültige Prognose vom 26 um 06 UTC bis 27 um 06 UTC
Wind 5 kt aus Nord/Nordost
Sichtweite 10 km oder mehr
keine Wolken unter 1500 m und keine Kumulonimbus oder Gewitterwolken
Wahrscheinlichkeit 30% :
Zeitweise
vom 26 um 23 UTC bis 27 um 02 UTC
Sichtweite: 3000 m
feuchter Dunst

TAF: LFRH 260500Z 2606/2706 02005KT CAVOK PROB30 TEMPO 2623/2702 3000 BR

Wetterbeobachtungen und Prognosen von mehr als 4000 Flughäfen (METAR und TAF Bericht).

Die verfügbaren Stationen werden durch gelbe und rote Markierungen auf der Karte dargestellt.

Führen Sie die Maus auf sie, um den Namen der Station zu sehen.

Darauf klicken, um die Beobachtung von Wetterbeobachtungen und Prognosen zu sehen.

Um die Karte zu ändern : klicken Sie auf den grünen Tasten mit einem schwarzen Kreuz Zum Vergrößern, auf den grünen Button mit einem Gedankenstrich zu verkleinern, oder auf die grünen Pfeile für benachbarte Karten.


METAR-TAF: